sensor_id;sensor_type;location;lat;lon;timestamp;pressure;altitude;pressure_sealevel;temperature;humidity
39411;BME280;26579;43.238;23.124;2023-05-12T00:00:28;97203.81;;;12.56;85.86
39411;BME280;26579;43.238;23.124;2023-05-12T00:02:54;97199.53;;;12.45;85.89
39411;BME280;26579;43.238;23.124;2023-05-12T00:05:20;97213.44;;;12.56;86.14
39411;BME280;26579;43.238;23.124;2023-05-12T00:07:45;97186.28;;;12.37;86.18
39411;BME280;26579;43.238;23.124;2023-05-12T00:10:11;97207.72;;;12.41;86.45
39411;BME280;26579;43.238;23.124;2023-05-12T00:12:37;97217.22;;;12.42;86.80
39411;BME280;26579;43.238;23.124;2023-05-12T00:15:03;97212.84;;;12.42;86.77
39411;BME280;26579;43.238;23.124;2023-05-12T00:17:30;97208.56;;;12.41;87.23
39411;BME280;26579;43.238;23.124;2023-05-12T00:19:56;97209.00;;;12.46;87.12
39411;BME280;26579;43.238;23.124;2023-05-12T00:22:21;97200.06;;;12.39;87.02
39411;BME280;26579;43.238;23.124;2023-05-12T00:24:47;97210.34;;;12.41;87.43
39411;BME280;26579;43.238;23.124;2023-05-12T00:27:13;97207.88;;;12.39;87.02
39411;BME280;26579;43.238;23.124;2023-05-12T00:29:38;97217.22;;;12.42;87.17
39411;BME280;26579;43.238;23.124;2023-05-12T00:32:04;97200.44;;;12.35;86.92
39411;BME280;26579;43.238;23.124;2023-05-12T00:34:30;97203.47;;;12.40;87.15
39411;BME280;26579;43.238;23.124;2023-05-12T00:36:56;97214.22;;;12.46;87.47
39411;BME280;26579;43.238;23.124;2023-05-12T00:39:21;97219.34;;;12.48;87.38
39411;BME280;26579;43.238;23.124;2023-05-12T00:41:47;97213.78;;;12.41;87.37
39411;BME280;26579;43.238;23.124;2023-05-12T00:44:13;97219.72;;;12.43;87.74
39411;BME280;26579;43.238;23.124;2023-05-12T00:46:39;97219.19;;;12.50;87.75
39411;BME280;26579;43.238;23.124;2023-05-12T00:49:06;97218.63;;;12.46;87.40
39411;BME280;26579;43.238;23.124;2023-05-12T00:51:31;97219.75;;;12.53;87.54
39411;BME280;26579;43.238;23.124;2023-05-12T00:53:57;97215.03;;;12.47;87.73
39411;BME280;26579;43.238;23.124;2023-05-12T00:56:24;97223.44;;;12.51;87.84
39411;BME280;26579;43.238;23.124;2023-05-12T00:58:50;97218.88;;;12.43;88.05
39411;BME280;26579;43.238;23.124;2023-05-12T01:01:16;97224.56;;;12.48;88.35
39411;BME280;26579;43.238;23.124;2023-05-12T01:03:44;97229.63;;;12.50;88.33
39411;BME280;26579;43.238;23.124;2023-05-12T01:06:46;97221.19;;;12.36;88.96
39411;BME280;26579;43.238;23.124;2023-05-12T01:09:14;97222.03;;;12.37;88.39
39411;BME280;26579;43.238;23.124;2023-05-12T01:11:40;97220.34;;;12.36;88.71
39411;BME280;26579;43.238;23.124;2023-05-12T01:14:06;97212.91;;;12.31;89.05
39411;BME280;26579;43.238;23.124;2023-05-12T01:16:45;97215.00;;;12.37;89.15
39411;BME280;26579;43.238;23.124;2023-05-12T01:19:35;97215.28;;;12.34;89.11
39411;BME280;26579;43.238;23.124;2023-05-12T01:22:03;97224.75;;;12.35;88.81
39411;BME280;26579;43.238;23.124;2023-05-12T01:24:31;97213.59;;;12.33;89.25
39411;BME280;26579;43.238;23.124;2023-05-12T01:26:59;97208.38;;;12.33;nan
39411;BME280;26579;43.238;23.124;2023-05-12T01:29:25;97221.19;;;12.36;89.00
39411;BME280;26579;43.238;23.124;2023-05-12T01:31:52;97198.88;;;12.22;88.65
39411;BME280;26579;43.238;23.124;2023-05-12T01:34:19;97227.25;;;12.37;88.77
39411;BME280;26579;43.238;23.124;2023-05-12T01:36:48;97203.84;;;12.35;88.65
39411;BME280;26579;43.238;23.124;2023-05-12T01:39:14;97227.44;;;12.45;88.09
39411;BME280;26579;43.238;23.124;2023-05-12T01:41:40;97223.28;;;12.42;88.58
39411;BME280;26579;43.238;23.124;2023-05-12T01:44:06;97225.03;;;12.42;88.40
39411;BME280;26579;43.238;23.124;2023-05-12T01:46:32;97214.44;;;12.34;88.73
39411;BME280;26579;43.238;23.124;2023-05-12T01:48:59;97225.31;;;12.39;88.79
39411;BME280;26579;43.238;23.124;2023-05-12T01:51:25;97228.66;;;12.51;88.42
39411;BME280;26579;43.238;23.124;2023-05-12T01:53:51;97222.44;;;12.42;88.65
39411;BME280;26579;43.238;23.124;2023-05-12T01:56:17;97224.09;;;12.43;88.80
39411;BME280;26579;43.238;23.124;2023-05-12T01:58:42;97229.88;;;12.46;88.58
39411;BME280;26579;43.238;23.124;2023-05-12T02:01:08;97224.88;;;12.34;89.22
39411;BME280;26579;43.238;23.124;2023-05-12T02:03:34;97220.59;;;12.33;89.17
39411;BME280;26579;43.238;23.124;2023-05-12T02:05:59;97216.63;;;12.29;89.61
39411;BME280;26579;43.238;23.124;2023-05-12T02:08:25;97216.94;;;12.14;89.83
39411;BME280;26579;43.238;23.124;2023-05-12T02:11:06;97220.81;;;12.20;90.53
39411;BME280;26579;43.238;23.124;2023-05-12T02:13:32;97224.56;;;12.27;89.35
39411;BME280;26579;43.238;23.124;2023-05-12T02:15:58;97229.25;;;12.33;88.27
39411;BME280;26579;43.238;23.124;2023-05-12T02:18:23;97220.03;;;12.29;88.08
39411;BME280;26579;43.238;23.124;2023-05-12T02:20:50;97227.06;;;12.29;87.90
39411;BME280;26579;43.238;23.124;2023-05-12T02:23:15;97226.66;;;12.33;88.17
39411;BME280;26579;43.238;23.124;2023-05-12T02:25:42;97223.81;;;12.36;87.99
39411;BME280;26579;43.238;23.124;2023-05-12T02:28:08;97226.28;;;12.38;87.45
39411;BME280;26579;43.238;23.124;2023-05-12T02:30:33;97218.69;;;12.35;87.75
39411;BME280;26579;43.238;23.124;2023-05-12T02:32:59;97230.69;;;12.37;87.77
39411;BME280;26579;43.238;23.124;2023-05-12T02:35:25;97227.66;;;12.42;87.63
39411;BME280;26579;43.238;23.124;2023-05-12T02:37:50;97228.19;;;12.36;87.53
39411;BME280;26579;43.238;23.124;2023-05-12T02:40:16;97211.25;;;12.30;87.00
39411;BME280;26579;43.238;23.124;2023-05-12T02:42:42;97213.47;;;12.35;87.54
39411;BME280;26579;43.238;23.124;2023-05-12T02:45:08;97221.06;;;12.38;87.69
39411;BME280;26579;43.238;23.124;2023-05-12T02:47:35;97227.34;;;12.35;87.92
39411;BME280;26579;43.238;23.124;2023-05-12T02:50:00;97231.75;;;12.35;88.12
39411;BME280;26579;43.238;23.124;2023-05-12T02:52:26;97226.09;;;12.30;88.26
39411;BME280;26579;43.238;23.124;2023-05-12T02:54:52;97235.84;;;12.28;87.85
39411;BME280;26579;43.238;23.124;2023-05-12T02:57:18;97232.03;;;12.32;88.05
39411;BME280;26579;43.238;23.124;2023-05-12T02:59:43;97226.53;;;12.35;87.38
39411;BME280;26579;43.238;23.124;2023-05-12T03:02:09;97229.53;;;12.30;87.75
39411;BME280;26579;43.238;23.124;2023-05-12T03:04:35;97223.19;;;12.23;88.26
39411;BME280;26579;43.238;23.124;2023-05-12T03:07:01;97228.50;;;12.21;87.99
39411;BME280;26579;43.238;23.124;2023-05-12T03:09:27;97239.84;;;12.32;88.20
39411;BME280;26579;43.238;23.124;2023-05-12T03:11:52;97238.22;;;12.31;87.91
39411;BME280;26579;43.238;23.124;2023-05-12T03:14:18;97248.66;;;12.31;88.16
39411;BME280;26579;43.238;23.124;2023-05-12T03:16:44;97228.50;;;12.21;88.12
39411;BME280;26579;43.238;23.124;2023-05-12T03:19:10;97240.81;;;12.31;88.37
39411;BME280;26579;43.238;23.124;2023-05-12T03:21:36;97237.94;;;12.34;87.91
39411;BME280;26579;43.238;23.124;2023-05-12T03:24:02;97244.09;;;12.33;87.68
39411;BME280;26579;43.238;23.124;2023-05-12T03:26:29;97233.88;;;12.20;87.97
39411;BME280;26579;43.238;23.124;2023-05-12T03:28:55;97248.75;;;12.29;87.93
39411;BME280;26579;43.238;23.124;2023-05-12T03:31:20;97249.22;;;12.34;87.81
39411;BME280;26579;43.238;23.124;2023-05-12T03:33:46;97253.16;;;12.29;88.06
39411;BME280;26579;43.238;23.124;2023-05-12T03:36:12;97242.28;;;12.23;88.62
39411;BME280;26579;43.238;23.124;2023-05-12T03:38:38;97233.31;;;12.16;88.79
39411;BME280;26579;43.238;23.124;2023-05-12T03:41:07;97250.56;;;12.29;88.60
39411;BME280;26579;43.238;23.124;2023-05-12T03:43:34;97225.66;;;12.04;88.95
39411;BME280;26579;43.238;23.124;2023-05-12T03:45:59;97256.28;;;12.22;89.35
39411;BME280;26579;43.238;23.124;2023-05-12T03:48:25;97252.25;;;12.18;89.52
39411;BME280;26579;43.238;23.124;2023-05-12T03:50:51;97253.41;;;12.26;88.85
39411;BME280;26579;43.238;23.124;2023-05-12T03:53:16;97254.59;;;12.21;87.74
39411;BME280;26579;43.238;23.124;2023-05-12T03:55:42;97259.97;;;12.20;87.64
39411;BME280;26579;43.238;23.124;2023-05-12T03:58:08;97263.84;;;12.26;87.47
39411;BME280;26579;43.238;23.124;2023-05-12T04:00:34;97266.47;;;12.26;87.86
39411;BME280;26579;43.238;23.124;2023-05-12T04:03:00;97261.06;;;12.17;87.79
39411;BME280;26579;43.238;23.124;2023-05-12T04:05:25;97267.09;;;12.18;87.89
39411;BME280;26579;43.238;23.124;2023-05-12T04:07:51;97272.06;;;12.21;87.07
39411;BME280;26579;43.238;23.124;2023-05-12T04:10:17;97275.75;;;12.18;86.90
39411;BME280;26579;43.238;23.124;2023-05-12T04:12:42;97275.75;;;12.18;87.25
39411;BME280;26579;43.238;23.124;2023-05-12T04:15:08;97271.25;;;12.20;87.39
39411;BME280;26579;43.238;23.124;2023-05-12T04:17:34;97280.16;;;12.18;87.31
39411;BME280;26579;43.238;23.124;2023-05-12T04:20:00;97275.75;;;12.18;86.99
39411;BME280;26579;43.238;23.124;2023-05-12T04:22:25;97278.88;;;12.12;87.05
39411;BME280;26579;43.238;23.124;2023-05-12T04:24:51;97282.19;;;12.14;87.20
39411;BME280;26579;43.238;23.124;2023-05-12T04:27:17;97284.28;;;12.20;87.00
39411;BME280;26579;43.238;23.124;2023-05-12T04:29:43;97286.91;;;12.20;86.03
39411;BME280;26579;43.238;23.124;2023-05-12T04:32:09;97285.81;;;12.23;84.59
39411;BME280;26579;43.238;23.124;2023-05-12T04:34:35;97280.72;;;12.21;83.73
39411;BME280;26579;43.238;23.124;2023-05-12T04:37:01;97289.13;;;12.25;82.76
39411;BME280;26579;43.238;23.124;2023-05-12T04:39:27;97296.47;;;12.31;82.51
39411;BME280;26579;43.238;23.124;2023-05-12T04:41:53;97290.22;;;12.22;81.73
39411;BME280;26579;43.238;23.124;2023-05-12T04:44:19;97289.97;;;12.26;81.38
39411;BME280;26579;43.238;23.124;2023-05-12T04:46:44;97294.47;;;12.23;81.71
39411;BME280;26579;43.238;23.124;2023-05-12T04:49:10;97292.13;;;12.20;82.37
39411;BME280;26579;43.238;23.124;2023-05-12T04:51:36;97305.44;;;12.17;82.49
39411;BME280;26579;43.238;23.124;2023-05-12T04:54:02;97293.84;;;12.10;82.50
39411;BME280;26579;43.238;23.124;2023-05-12T04:56:28;97296.72;;;12.07;81.56
39411;BME280;26579;43.238;23.124;2023-05-12T04:58:54;97292.22;;;11.98;80.92
39411;BME280;26579;43.238;23.124;2023-05-12T05:01:20;97283.03;;;11.83;80.81
39411;BME280;26579;43.238;23.124;2023-05-12T05:03:46;97293.22;;;11.86;82.55
39411;BME280;26579;43.238;23.124;2023-05-12T05:06:12;97294.41;;;11.82;83.70
39411;BME280;26579;43.238;23.124;2023-05-12T05:08:38;97308.53;;;11.90;83.71
39411;BME280;26579;43.238;23.124;2023-05-12T05:11:03;97301.06;;;11.86;83.67
39411;BME280;26579;43.238;23.124;2023-05-12T05:13:30;97301.06;;;11.86;82.59
39411;BME280;26579;43.238;23.124;2023-05-12T05:15:56;97288.84;;;11.86;82.31
39411;BME280;26579;43.238;23.124;2023-05-12T05:18:23;97302.00;;;11.85;83.41
39411;BME280;26579;43.238;23.124;2023-05-12T05:20:49;97314.69;;;11.89;83.50
39411;BME280;26579;43.238;23.124;2023-05-12T05:23:15;97313.34;;;11.95;84.02
39411;BME280;26579;43.238;23.124;2023-05-12T05:25:40;97314.19;;;11.95;83.95
39411;BME280;26579;43.238;23.124;2023-05-12T05:28:06;97323.78;;;11.95;84.34
39411;BME280;26579;43.238;23.124;2023-05-12T05:30:32;97322.13;;;11.94;84.74
39411;BME280;26579;43.238;23.124;2023-05-12T05:32:59;97320.00;;;11.99;84.63
39411;BME280;26579;43.238;23.124;2023-05-12T05:35:25;97309.34;;;11.91;84.29
39411;BME280;26579;43.238;23.124;2023-05-12T05:37:52;97321.53;;;12.02;84.03
39411;BME280;26579;43.238;23.124;2023-05-12T05:40:19;97331.56;;;12.06;84.44
39411;BME280;26579;43.238;23.124;2023-05-12T05:42:45;97324.13;;;12.02;84.60
39411;BME280;26579;43.238;23.124;2023-05-12T05:45:11;97317.13;;;12.02;83.44
39411;BME280;26579;43.238;23.124;2023-05-12T05:47:37;97329.22;;;12.03;83.46
39411;BME280;26579;43.238;23.124;2023-05-12T05:50:03;97326.59;;;12.03;84.50
39411;BME280;26579;43.238;23.124;2023-05-12T05:52:31;97330.88;;;12.04;83.00
39411;BME280;26579;43.238;23.124;2023-05-12T05:54:57;97336.34;;;12.01;83.54
39411;BME280;26579;43.238;23.124;2023-05-12T05:57:25;97342.00;;;12.06;82.60
39411;BME280;26579;43.238;23.124;2023-05-12T05:59:51;97347.22;;;12.06;82.42
39411;BME280;26579;43.238;23.124;2023-05-12T06:02:17;97332.44;;;11.95;83.12
39411;BME280;26579;43.238;23.124;2023-05-12T06:04:42;97341.22;;;11.83;82.57
39411;BME280;26579;43.238;23.124;2023-05-12T06:07:08;97342.56;;;11.77;82.70
39411;BME280;26579;43.238;23.124;2023-05-12T06:09:34;97348.84;;;11.75;82.71
39411;BME280;26579;43.238;23.124;2023-05-12T06:11:59;97355.16;;;11.72;83.03
39411;BME280;26579;43.238;23.124;2023-05-12T06:14:25;97354.94;;;11.64;83.07
39411;BME280;26579;43.238;23.124;2023-05-12T06:16:51;97350.31;;;11.56;83.09
39411;BME280;26579;43.238;23.124;2023-05-12T06:19:16;97364.06;;;11.70;83.20
39411;BME280;26579;43.238;23.124;2023-05-12T06:21:42;97349.56;;;11.66;83.27
39411;BME280;26579;43.238;23.124;2023-05-12T06:24:08;97359.06;;;11.78;84.27
39411;BME280;26579;43.238;23.124;2023-05-12T06:26:33;97356.66;;;11.86;82.71
39411;BME280;26579;43.238;23.124;2023-05-12T06:29:00;97376.09;;;11.82;83.11
39411;BME280;26579;43.238;23.124;2023-05-12T06:31:26;97365.34;;;11.75;82.68
39411;BME280;26579;43.238;23.124;2023-05-12T06:33:51;97382.66;;;11.88;82.99
39411;BME280;26579;43.238;23.124;2023-05-12T06:36:17;97376.81;;;11.84;82.67
39411;BME280;26579;43.238;23.124;2023-05-12T06:38:44;97383.78;;;11.84;82.19
39411;BME280;26579;43.238;23.124;2023-05-12T06:41:12;97385.38;;;11.86;82.22
39411;BME280;26579;43.238;23.124;2023-05-12T06:43:38;97381.44;;;11.81;81.50
39411;BME280;26579;43.238;23.124;2023-05-12T06:46:04;97383.13;;;11.70;81.89
39411;BME280;26579;43.238;23.124;2023-05-12T06:48:29;97381.03;;;11.53;83.26
39411;BME280;26579;43.238;23.124;2023-05-12T06:50:56;97383.16;;;11.48;83.41
39411;BME280;26579;43.238;23.124;2023-05-12T06:53:27;97383.19;;;11.14;85.72
39411;BME280;26579;43.238;23.124;2023-05-12T06:55:52;97397.50;;;11.08;87.02
39411;BME280;26579;43.238;23.124;2023-05-12T06:58:18;97398.06;;;10.90;88.27
39411;BME280;26579;43.238;23.124;2023-05-12T07:00:44;97389.31;;;10.79;89.23
39411;BME280;26579;43.238;23.124;2023-05-12T07:03:09;97393.66;;;10.79;88.85
39411;BME280;26579;43.238;23.124;2023-05-12T07:05:35;97384.09;;;10.79;88.41
39411;BME280;26579;43.238;23.124;2023-05-12T07:08:01;97397.47;;;10.86;88.32
39411;BME280;26579;43.238;23.124;2023-05-12T07:10:26;97391.19;;;10.77;87.91
39411;BME280;26579;43.238;23.124;2023-05-12T07:12:52;97396.28;;;10.79;87.58
39411;BME280;26579;43.238;23.124;2023-05-12T07:15:18;97398.41;;;10.74;87.65
39411;BME280;26579;43.238;23.124;2023-05-12T07:17:44;97405.03;;;10.78;87.62
39411;BME280;26579;43.238;23.124;2023-05-12T07:20:09;97406.78;;;10.66;88.01
39411;BME280;26579;43.238;23.124;2023-05-12T07:22:35;97403.50;;;10.75;87.23
39411;BME280;26579;43.238;23.124;2023-05-12T07:25:01;97394.75;;;10.76;87.65
39411;BME280;26579;43.238;23.124;2023-05-12T07:27:26;97401.63;;;10.88;87.75
39411;BME280;26579;43.238;23.124;2023-05-12T07:29:52;97397.59;;;10.84;87.04
39411;BME280;26579;43.238;23.124;2023-05-12T07:32:18;97406.38;;;10.95;86.92
39411;BME280;26579;43.238;23.124;2023-05-12T07:34:43;97396.78;;;10.95;87.05
39411;BME280;26579;43.238;23.124;2023-05-12T07:37:09;97412.75;;;11.02;86.92
39411;BME280;26579;43.238;23.124;2023-05-12T07:39:35;97403.88;;;10.93;86.43
39411;BME280;26579;43.238;23.124;2023-05-12T07:42:00;97415.75;;;10.97;86.38
39411;BME280;26579;43.238;23.124;2023-05-12T07:44:26;97417.28;;;11.00;85.57
39411;BME280;26579;43.238;23.124;2023-05-12T07:46:52;97417.53;;;10.97;85.97
39411;BME280;26579;43.238;23.124;2023-05-12T07:49:17;97413.47;;;10.93;86.64
39411;BME280;26579;43.238;23.124;2023-05-12T07:51:43;97427.94;;;10.97;85.59
39411;BME280;26579;43.238;23.124;2023-05-12T07:54:08;97426.50;;;10.93;85.83
39411;BME280;26579;43.238;23.124;2023-05-12T07:56:34;97426.03;;;10.99;85.79
39411;BME280;26579;43.238;23.124;2023-05-12T07:59:00;97424.38;;;10.98;85.58
39411;BME280;26579;43.238;23.124;2023-05-12T08:01:26;97409.81;;;10.95;84.37
39411;BME280;26579;43.238;23.124;2023-05-12T08:03:51;97416.06;;;10.93;85.07
39411;BME280;26579;43.238;23.124;2023-05-12T08:06:17;97427.22;;;10.95;86.21
39411;BME280;26579;43.238;23.124;2023-05-12T08:08:43;97411.22;;;10.99;85.33
39411;BME280;26579;43.238;23.124;2023-05-12T08:11:09;97430.44;;;11.09;84.14
39411;BME280;26579;43.238;23.124;2023-05-12T08:13:36;97433.75;;;11.12;84.04
39411;BME280;26579;43.238;23.124;2023-05-12T08:16:02;97425.56;;;11.05;83.46
39411;BME280;26579;43.238;23.124;2023-05-12T08:18:28;97429.13;;;11.04;83.27
39411;BME280;26579;43.238;23.124;2023-05-12T08:20:53;97436.47;;;11.10;83.60
39411;BME280;26579;43.238;23.124;2023-05-12T08:23:19;97441.44;;;11.02;83.72
39411;BME280;26579;43.238;23.124;2023-05-12T08:25:45;97446.03;;;10.98;83.86
39411;BME280;26579;43.238;23.124;2023-05-12T08:28:11;97436.56;;;10.97;84.33
39411;BME280;26579;43.238;23.124;2023-05-12T08:30:37;97441.66;;;10.99;84.14
39411;BME280;26579;43.238;23.124;2023-05-12T08:33:03;97439.06;;;10.99;84.39
39411;BME280;26579;43.238;23.124;2023-05-12T08:35:29;97447.59;;;11.01;83.94
39411;BME280;26579;43.238;23.124;2023-05-12T08:37:55;97428.50;;;10.89;84.18
39411;BME280;26579;43.238;23.124;2023-05-12T08:40:22;97451.16;;;11.00;83.71
39411;BME280;26579;43.238;23.124;2023-05-12T08:42:54;97447.94;;;10.96;84.77
39411;BME280;26579;43.238;23.124;2023-05-12T08:45:27;97449.25;;;11.02;85.46
39411;BME280;26579;43.238;23.124;2023-05-12T08:47:53;97453.75;;;11.00;83.76
39411;BME280;26579;43.238;23.124;2023-05-12T08:50:21;97465.47;;;10.94;83.54
39411;BME280;26579;43.238;23.124;2023-05-12T08:52:47;97455.38;;;10.90;84.25
39411;BME280;26579;43.238;23.124;2023-05-12T08:55:14;97457.03;;;10.91;83.60
39411;BME280;26579;43.238;23.124;2023-05-12T08:57:41;97466.63;;;10.90;83.10
39411;BME280;26579;43.238;23.124;2023-05-12T09:00:08;97459.88;;;10.87;83.52
39411;BME280;26579;43.238;23.124;2023-05-12T09:02:36;97464.41;;;10.97;82.90
39411;BME280;26579;43.238;23.124;2023-05-12T09:05:02;97466.78;;;11.00;83.79
39411;BME280;26579;43.238;23.124;2023-05-12T09:07:28;97453.38;;;10.93;83.64
39411;BME280;26579;43.238;23.124;2023-05-12T09:09:57;97462.50;;;10.99;83.59
39411;BME280;26579;43.238;23.124;2023-05-12T09:12:25;97450.91;;;10.92;84.73
39411;BME280;26579;43.238;23.124;2023-05-12T09:15:01;97460.72;;;10.99;83.93
39411;BME280;26579;43.238;23.124;2023-05-12T09:17:28;97455.75;;;11.07;83.00
39411;BME280;26579;43.238;23.124;2023-05-12T09:19:53;97463.59;;;11.07;83.18
39411;BME280;26579;43.238;23.124;2023-05-12T09:22:30;97444.25;;;10.99;83.46
39411;BME280;26579;43.238;23.124;2023-05-12T09:24:56;97448.69;;;11.09;83.83
39411;BME280;26579;43.238;23.124;2023-05-12T09:27:28;97443.47;;;11.09;83.54
39411;BME280;26579;43.238;23.124;2023-05-12T09:29:54;97454.13;;;11.18;84.68
39411;BME280;26579;43.238;23.124;2023-05-12T09:32:31;97447.88;;;11.20;83.98
39411;BME280;26579;43.238;23.124;2023-05-12T09:35:01;97447.97;;;11.19;83.45
39411;BME280;26579;43.238;23.124;2023-05-12T09:37:32;97454.00;;;11.19;83.58
39411;BME280;26579;43.238;23.124;2023-05-12T09:39:59;97451.88;;;11.24;84.02
39411;BME280;26579;43.238;23.124;2023-05-12T09:42:28;97453.66;;;11.24;82.96
39411;BME280;26579;43.238;23.124;2023-05-12T09:44:58;97455.56;;;11.22;83.21
39411;BME280;26579;43.238;23.124;2023-05-12T09:47:27;97454.84;;;11.20;83.36
39411;BME280;26579;43.238;23.124;2023-05-12T09:49:52;97454.97;;;11.18;82.21
39411;BME280;26579;43.238;23.124;2023-05-12T09:52:20;97460.19;;;11.18;82.92
39411;BME280;26579;43.238;23.124;2023-05-12T09:54:46;97440.28;;;11.06;82.40
39411;BME280;26579;43.238;23.124;2023-05-12T09:57:14;97444.03;;;11.02;83.60
39411;BME280;26579;43.238;23.124;2023-05-12T09:59:41;97432.66;;;10.92;84.56
39411;BME280;26579;43.238;23.124;2023-05-12T10:02:08;97454.34;;;11.03;84.04
39411;BME280;26579;43.238;23.124;2023-05-12T10:04:57;97459.81;;;11.12;83.79
39411;BME280;26579;43.238;23.124;2023-05-12T10:07:26;97461.69;;;11.09;83.73
39411;BME280;26579;43.238;23.124;2023-05-12T10:09:54;97455.91;;;11.06;84.52
39411;BME280;26579;43.238;23.124;2023-05-12T10:12:21;97456.72;;;11.06;85.22
39411;BME280;26579;43.238;23.124;2023-05-12T10:14:47;97455.44;;;11.12;85.07
39411;BME280;26579;43.238;23.124;2023-05-12T10:17:13;97454.25;;;11.16;84.63
39411;BME280;26579;43.238;23.124;2023-05-12T10:19:40;97456.50;;;11.21;84.44
39411;BME280;26579;43.238;23.124;2023-05-12T10:22:09;97445.38;;;11.19;83.59
39411;BME280;26579;43.238;23.124;2023-05-12T10:24:35;97445.25;;;11.09;83.83
39411;BME280;26579;43.238;23.124;2023-05-12T10:27:04;97459.44;;;11.16;84.46
39411;BME280;26579;43.238;23.124;2023-05-12T10:29:30;97469.63;;;11.19;85.21
39411;BME280;26579;43.238;23.124;2023-05-12T10:31:56;97451.16;;;11.22;85.17
39411;BME280;26579;43.238;23.124;2023-05-12T10:34:22;97455.91;;;11.28;84.50
39411;BME280;26579;43.238;23.124;2023-05-12T10:36:50;97467.06;;;11.30;84.48
39411;BME280;26579;43.238;23.124;2023-05-12T10:39:16;97468.00;;;11.29;84.19
39411;BME280;26579;43.238;23.124;2023-05-12T10:41:42;97465.84;;;11.12;84.00
39411;BME280;26579;43.238;23.124;2023-05-12T10:44:08;97471.16;;;11.10;85.06
39411;BME280;26579;43.238;23.124;2023-05-12T10:46:33;97468.31;;;11.14;84.86
39411;BME280;26579;43.238;23.124;2023-05-12T10:49:01;97457.28;;;10.99;84.69
39411;BME280;26579;43.238;23.124;2023-05-12T10:54:01;97457.41;;;10.97;85.73
39411;BME280;26579;43.238;23.124;2023-05-12T10:56:29;97463.94;;;11.03;86.04
39411;BME280;26579;43.238;23.124;2023-05-12T11:01:38;97484.16;;;10.99;86.13
39411;BME280;26579;43.238;23.124;2023-05-12T11:04:14;97481.19;;;10.93;85.17
39411;BME280;26579;43.238;23.124;2023-05-12T11:06:41;97472.28;;;10.84;86.13
39411;BME280;26579;43.238;23.124;2023-05-12T11:09:08;97472.56;;;10.92;86.30
39411;BME280;26579;43.238;23.124;2023-05-12T11:11:34;97468.53;;;10.88;86.20
39411;BME280;26579;43.238;23.124;2023-05-12T11:14:00;97482.28;;;11.01;86.01
39411;BME280;26579;43.238;23.124;2023-05-12T11:16:26;97475.91;;;11.05;87.02
39411;BME280;26579;43.238;23.124;2023-05-12T11:19:03;97480.06;;;11.19;86.68
39411;BME280;26579;43.238;23.124;2023-05-12T11:21:30;97477.47;;;11.19;84.83
39411;BME280;26579;43.238;23.124;2023-05-12T11:23:57;97479.13;;;11.20;85.01
39411;BME280;26579;43.238;23.124;2023-05-12T11:26:22;97472.75;;;11.24;85.72
39411;BME280;26579;43.238;23.124;2023-05-12T11:28:48;97479.97;;;11.32;84.94
39411;BME280;26579;43.238;23.124;2023-05-12T11:31:18;97476.91;;;11.38;85.01
39411;BME280;26579;43.238;23.124;2023-05-12T11:33:45;97473.81;;;11.44;84.56
39411;BME280;26579;43.238;23.124;2023-05-12T11:36:11;97480.59;;;11.47;84.90
39411;BME280;26579;43.238;23.124;2023-05-12T11:38:37;97488.16;;;11.50;84.01
39411;BME280;26579;43.238;23.124;2023-05-12T11:41:03;97483.28;;;11.45;82.45
39411;BME280;26579;43.238;23.124;2023-05-12T11:43:30;97482.81;;;11.40;82.41
39411;BME280;26579;43.238;23.124;2023-05-12T11:45:56;97494.66;;;11.33;82.64
39411;BME280;26579;43.238;23.124;2023-05-12T11:48:32;97493.50;;;11.26;83.38
39411;BME280;26579;43.238;23.124;2023-05-12T11:50:57;97491.31;;;11.20;84.10
39411;BME280;26579;43.238;23.124;2023-05-12T11:53:24;97496.44;;;11.21;83.06
39411;BME280;26579;43.238;23.124;2023-05-12T11:55:51;97491.56;;;11.28;84.18
39411;BME280;26579;43.238;23.124;2023-05-12T11:58:22;97479.72;;;11.24;84.33
39411;BME280;26579;43.238;23.124;2023-05-12T12:00:48;97477.13;;;11.35;83.41
39411;BME280;26579;43.238;23.124;2023-05-12T12:03:14;97474.53;;;11.35;81.78
39411;BME280;26579;43.238;23.124;2023-05-12T12:05:57;97483.28;;;11.45;82.03
39411;BME280;26579;43.238;23.124;2023-05-12T12:08:23;97471.47;;;11.41;82.34
39411;BME280;26579;43.238;23.124;2023-05-12T12:10:48;97478.91;;;11.46;82.18
39411;BME280;26579;43.238;23.124;2023-05-12T12:13:21;97470.75;;;11.50;81.05
39411;BME280;26579;43.238;23.124;2023-05-12T12:15:48;97483.19;;;11.58;80.76
39411;BME280;26579;43.238;23.124;2023-05-12T12:18:14;97480.59;;;11.69;80.63
39411;BME280;26579;43.238;23.124;2023-05-12T12:20:39;97479.41;;;11.62;81.94
39411;BME280;26579;43.238;23.124;2023-05-12T12:23:05;97492.44;;;11.73;80.87
39411;BME280;26579;43.238;23.124;2023-05-12T12:25:31;97493.84;;;11.77;80.79
39411;BME280;26579;43.238;23.124;2023-05-12T12:27:56;97477.59;;;11.74;80.41
39411;BME280;26579;43.238;23.124;2023-05-12T12:30:22;97484.84;;;11.82;79.53
39411;BME280;26579;43.238;23.124;2023-05-12T12:32:48;97477.03;;;11.82;79.88
39411;BME280;26579;43.238;23.124;2023-05-12T12:35:13;97472.50;;;11.84;80.19
39411;BME280;26579;43.238;23.124;2023-05-12T12:37:39;97478.22;;;11.89;80.94
39411;BME280;26579;43.238;23.124;2023-05-12T12:40:06;97491.97;;;11.79;81.14
39411;BME280;26579;43.238;23.124;2023-05-12T12:42:36;97483.69;;;11.86;81.41
39411;BME280;26579;43.238;23.124;2023-05-12T12:45:03;97469.88;;;11.84;80.37
39411;BME280;26579;43.238;23.124;2023-05-12T12:47:30;97478.22;;;11.89;80.36
39411;BME280;26579;43.238;23.124;2023-05-12T12:49:56;97475.25;;;11.93;81.53
39411;BME280;26579;43.238;23.124;2023-05-12T12:52:22;97468.25;;;11.94;82.21